createdAt,value
2022-10-01T00:03:18.320Z,8.50
2022-10-01T00:28:29.474Z,8.60
2022-10-01T00:33:31.227Z,11.60
2022-10-01T00:43:40.084Z,8.40
2022-10-01T00:48:58.197Z,8.50
2022-10-01T00:54:08.327Z,8.50
2022-10-01T00:59:12.119Z,8.30
2022-10-01T01:14:52.613Z,8.30
2022-10-01T01:20:18.870Z,8.20
2022-10-01T01:25:29.000Z,8.20
2022-10-01T01:30:33.790Z,8.30
2022-10-01T01:35:42.177Z,10.60
2022-10-01T01:40:46.119Z,8.50
2022-10-01T01:45:51.415Z,8.30
2022-10-01T01:51:12.265Z,8.10
2022-10-01T02:01:41.675Z,8.00
2022-10-01T02:06:56.843Z,8.10
2022-10-01T02:12:20.198Z,8.20
2022-10-01T02:17:40.442Z,8.30
2022-10-01T02:23:06.212Z,8.10
2022-10-01T02:28:12.096Z,8.30
2022-10-01T02:33:15.884Z,9.70
2022-10-01T02:38:21.319Z,8.30
2022-10-01T02:43:32.153Z,8.30
2022-10-01T02:53:44.131Z,8.00
2022-10-01T02:58:46.349Z,8.10
2022-10-01T03:18:55.980Z,8.70
2022-10-01T03:28:59.818Z,9.10
2022-10-01T03:49:07.896Z,10.50
2022-10-01T03:54:11.095Z,9.30
2022-10-01T04:09:16.942Z,9.90
2022-10-01T04:14:18.687Z,12.60
2022-10-01T04:39:49.342Z,10.40
2022-10-01T04:44:51.026Z,10.50
2022-10-01T05:04:58.847Z,10.70
2022-10-01T05:20:06.651Z,10.70
2022-10-01T05:25:08.649Z,10.80
2022-10-01T05:30:12.403Z,10.90
2022-10-01T05:35:14.072Z,11.10
2022-10-01T05:40:15.785Z,10.90
2022-10-01T05:50:21.769Z,11.00
2022-10-01T06:00:29.188Z,10.80
2022-10-01T06:05:32.798Z,11.00
2022-10-01T06:15:39.491Z,11.20
2022-10-01T06:20:41.301Z,11.20
2022-10-01T06:30:45.667Z,11.40
2022-10-01T06:35:49.862Z,11.40
2022-10-01T06:40:52.730Z,11.50
2022-10-01T06:45:55.099Z,11.50
2022-10-01T06:56:07.638Z,11.30
2022-10-01T07:46:34.643Z,11.50
2022-10-01T07:51:36.977Z,13.30
2022-10-01T07:56:39.090Z,11.30
2022-10-01T08:11:45.620Z,11.30
2022-10-01T08:26:55.947Z,11.40
2022-10-01T08:31:58.476Z,11.40
2022-10-01T08:37:00.202Z,13.00
2022-10-01T08:42:22.034Z,11.70
2022-10-01T08:47:38.232Z,11.50
2022-10-01T08:52:50.559Z,11.40
2022-10-01T08:57:56.220Z,12.50
2022-10-01T09:03:03.798Z,11.50
2022-10-01T09:08:43.728Z,11.50
2022-10-01T09:14:07.404Z,11.50
2022-10-01T09:19:33.037Z,11.50
2022-10-01T09:24:45.297Z,11.60
2022-10-01T09:29:57.897Z,11.60
2022-10-01T09:35:07.816Z,11.40
2022-10-01T09:40:24.708Z,11.60
2022-10-01T09:45:26.695Z,11.60
2022-10-01T09:50:38.564Z,11.60
2022-10-01T09:55:44.415Z,11.60
2022-10-01T10:00:48.314Z,10.70
2022-10-01T10:05:50.811Z,13.10
2022-10-01T10:10:58.884Z,11.70
2022-10-01T10:16:07.838Z,11.60
2022-10-01T10:21:16.337Z,11.60
2022-10-01T10:26:32.078Z,11.60
2022-10-01T10:31:48.035Z,11.40
2022-10-01T10:36:57.554Z,11.60
2022-10-01T10:42:01.379Z,11.50
2022-10-01T10:47:11.275Z,11.60
2022-10-01T10:52:19.769Z,12.80
2022-10-01T10:57:28.106Z,12.00
2022-10-01T11:02:32.187Z,12.10
2022-10-01T11:13:06.643Z,12.30
2022-10-01T11:18:16.261Z,12.50
2022-10-01T11:23:34.209Z,12.30
2022-10-01T11:28:52.384Z,12.60
2022-10-01T11:34:25.232Z,12.50
2022-10-01T11:39:29.702Z,12.30
2022-10-01T11:44:42.978Z,12.20
2022-10-01T11:55:40.363Z,12.40
2022-10-01T12:00:46.510Z,12.20
2022-10-01T12:11:17.755Z,12.50
2022-10-01T12:16:40.769Z,12.40
2022-10-01T12:21:53.102Z,12.40
2022-10-01T12:32:28.515Z,12.70
2022-10-01T12:38:06.471Z,12.70
2022-10-01T12:43:14.035Z,12.40
2022-10-01T12:53:33.111Z,12.80
2022-10-01T12:58:53.675Z,12.70
2022-10-01T13:04:17.259Z,12.80
2022-10-01T13:09:48.641Z,13.00
2022-10-01T13:14:53.401Z,13.00
2022-10-01T13:20:01.322Z,13.10
2022-10-01T13:25:32.985Z,13.00
2022-10-01T13:30:51.898Z,13.40
2022-10-01T13:35:57.061Z,13.40
2022-10-01T13:47:09.919Z,13.50
2022-10-01T13:52:20.510Z,13.70
2022-10-01T13:57:34.157Z,13.60
2022-10-01T14:02:39.091Z,13.90
2022-10-01T14:07:41.858Z,13.90
2022-10-01T14:13:05.321Z,13.90
2022-10-01T14:18:12.887Z,13.80
2022-10-01T14:23:33.651Z,13.90
2022-10-01T14:28:38.542Z,15.30
2022-10-01T14:34:14.645Z,15.40
2022-10-01T14:39:22.057Z,13.80
2022-10-01T14:44:28.649Z,13.90
2022-10-01T14:49:32.296Z,13.80
2022-10-01T14:55:11.127Z,13.80
2022-10-01T15:00:18.319Z,13.80
2022-10-01T15:05:21.843Z,15.00
2022-10-01T15:10:28.363Z,13.90
2022-10-01T15:15:41.613Z,14.90
2022-10-01T15:21:06.302Z,13.80
2022-10-01T15:26:12.551Z,13.80
2022-10-01T15:31:15.165Z,14.70
2022-10-01T15:36:18.893Z,13.80
2022-10-01T15:41:32.527Z,13.80
2022-10-01T15:46:35.894Z,13.80
2022-10-01T15:51:44.434Z,13.70
2022-10-01T15:56:49.210Z,13.60
2022-10-01T16:11:59.855Z,13.60
2022-10-01T16:17:16.852Z,13.60
2022-10-01T16:22:26.937Z,13.70
2022-10-01T16:27:50.949Z,13.70
2022-10-01T16:32:54.312Z,13.70
2022-10-01T16:37:57.865Z,13.60
2022-10-01T16:43:00.646Z,13.70
2022-10-01T16:48:06.047Z,15.60
2022-10-01T16:53:12.622Z,14.90
2022-10-01T17:03:20.158Z,13.50
2022-10-01T17:13:25.187Z,13.40
2022-10-01T17:18:27.501Z,14.30
2022-10-01T17:33:34.194Z,13.50
2022-10-01T17:48:42.699Z,13.40
2022-10-01T17:58:47.204Z,13.40
2022-10-01T18:03:55.451Z,13.30
2022-10-01T18:13:59.398Z,13.20
2022-10-01T18:24:24.597Z,13.20
2022-10-01T18:29:39.229Z,13.30
2022-10-01T18:34:59.162Z,13.80
2022-10-01T18:40:21.457Z,13.20
2022-10-01T18:45:41.693Z,13.20
2022-10-01T18:50:52.454Z,13.30
2022-10-01T18:56:00.192Z,13.20
2022-10-01T19:01:16.636Z,14.10
2022-10-01T19:06:48.273Z,13.30
2022-10-01T19:12:18.012Z,13.20
2022-10-01T19:17:44.731Z,13.20
2022-10-01T19:23:12.329Z,13.20
2022-10-01T19:28:49.678Z,13.10
2022-10-01T19:33:59.974Z,13.20
2022-10-01T19:39:09.097Z,13.10
2022-10-01T19:44:28.390Z,13.10
2022-10-01T19:49:35.598Z,13.70
2022-10-01T19:54:42.842Z,13.10
2022-10-01T20:04:58.647Z,13.00
2022-10-01T20:10:13.115Z,13.00
2022-10-01T20:15:26.049Z,13.50
2022-10-01T20:20:39.256Z,13.20
2022-10-01T20:26:04.257Z,13.30
2022-10-01T20:31:25.011Z,13.20
2022-10-01T20:36:36.549Z,13.30
2022-10-01T20:41:53.218Z,13.70
2022-10-01T20:47:03.916Z,13.40
2022-10-01T20:52:20.384Z,13.40
2022-10-01T20:57:34.954Z,13.40
2022-10-01T21:03:17.931Z,13.50
2022-10-01T21:08:34.297Z,13.60
2022-10-01T21:13:48.294Z,13.60
2022-10-01T21:18:58.335Z,13.70
2022-10-01T21:24:18.018Z,13.50
2022-10-01T21:30:01.768Z,13.50
2022-10-01T21:35:07.418Z,15.50
2022-10-01T21:40:25.451Z,13.50
2022-10-01T21:50:44.440Z,13.50
2022-10-01T21:56:13.404Z,13.50
2022-10-01T22:01:24.900Z,13.40
2022-10-01T22:06:29.029Z,13.40
2022-10-01T22:11:36.208Z,13.50
2022-10-01T22:17:03.352Z,13.50
2022-10-01T22:22:33.514Z,13.50
2022-10-01T22:27:55.466Z,13.60
2022-10-01T22:33:08.976Z,13.60
2022-10-01T22:38:14.631Z,13.50
2022-10-01T22:43:16.421Z,13.60
2022-10-01T22:48:33.195Z,13.70
2022-10-01T22:54:05.652Z,13.70
2022-10-01T22:59:08.131Z,13.70
2022-10-01T23:04:32.276Z,13.70
2022-10-01T23:09:48.273Z,13.60
2022-10-01T23:14:58.952Z,13.60
2022-10-01T23:20:18.020Z,13.70
2022-10-01T23:25:58.243Z,13.60
2022-10-01T23:31:12.347Z,13.70
2022-10-01T23:36:41.378Z,13.60
2022-10-01T23:41:50.514Z,13.60
2022-10-01T23:46:53.733Z,13.60
2022-10-01T23:52:23.957Z,13.50
2022-10-01T23:57:34.054Z,14.20
